Liberal Mid-America Regional Airport
KLBL : now visible

Airfield :











YOU CAN JOIN US ON...

 
LOGIN :

Register | Disclaimer

   EN    FR    IT 

 









Legend :    VFR   Marginal VFR   IFR   Intensive IFR   Very Intensive IFR
Visi :
Ceiling :
>= 8 km
>= 3000ft
5 to 8 km
1000 to 3000 ft
1500m to 5 km
500 to 1000 ft
800 to 1500m
200 to 500 ft
< 800m
< 200 ft
Symbols :   Thunderstorms  Fog  Heavy snow  Heavy precipitations  Wind > 20 kt






- Airport Elevation : 2885 ft
- IATA code : LBL


KLBL - Liberal Mid-America Regional

CURRENT METAR :
  • 110256Z AUTO 11006KT 10SM CLR 22/17 A3000 RMK AO2 SLP124 T02170167 53026

EXPIRED METARs :
  • 110156Z AUTO 12008KT 10SM CLR 21/17 A2996 RMK AO2 PK WND 08033/0104 SLP117 T02110172
  • 110056Z AUTO 09012KT 10SM CLR 27/19 A2992 RMK AO2 PK WND 08029/0003 WSHFT 2343 LTG DSNT E TSE14 SLP103 T02670189

TAF KLBL
Valid from the 11 at 00:00 until the 12 at 00:00 UTC


102335Z 1100/1124 18008KT P6SM VCTS OVC060CB
FM110100 18006KT P6SM FEW250
FM111800 14013G19KT P6SM FEW250
KZKC FIR / North America



MET'MAP, your aeronautical weather chart ! - Copyright ORBIFLY December 2007 - Disclaimer

ORBIFLY MET'MAP TEAM :

Programming & Development : Alexandra Zaïnal
Concept & original design : Baudouin d'Aumeries
Assistance for programming : Marc-Olivier Méhu
Technical & hardware support : Manuel Goepfert

Contact : metmap@orbifly.com




SOURCES & CREDITS :

   NOAA       Earth
Advisory